Time;durP1;ratioP1;P1;durP2;ratioP2;P2;SDS_P1;SDS_P2;PMS_P1;PMS_P2;Temp;Humidity;BMP_temperature;BMP_pressure;BME280_temperature;BME280_humidity;BME280_pressure;Samples;Min_cycle;Max_cycle;Signal;HPM_P1;HPM_P2
2022/08/20 00:01:03;;;;;;;14.45;11.85;;;;;;;;;;5078319;28;20075;-79
2022/08/20 00:03:40;;;;;;;17.48;12.27;;;;;;;;;;5080574;28;20066;-79
2022/08/20 00:06:06;;;;;;;15.05;11.45;;;;;;;;;;5081066;28;20048;-79
2022/08/20 00:08:32;;;;;;;15.93;12.27;;;;;;;;;;5079769;28;20037;-80
2022/08/20 00:10:59;;;;;;;17.70;12.27;;;;;;;;;;5072916;28;20048;-80
2022/08/20 00:13:30;;;;;;;17.17;12.68;;;;;;;;;;5085805;28;20044;-79
2022/08/20 00:15:56;;;;;;;;;;;;;;;;;;5083468;28;20115;-80
2022/08/20 00:18:22;;;;;;;16.17;12.32;;;;;;;;;;5078700;28;20389;-79
2022/08/20 00:20:50;;;;;;;16.83;11.43;;;;;;;;;;5080207;28;20045;-80
2022/08/20 00:23:17;;;;;;;16.05;12.00;;;;;;;;;;5062392;28;20120;-79
2022/08/20 00:25:43;;;;;;;19.17;12.27;;;;;;;;;;5077719;28;20091;-79
2022/08/20 00:28:10;;;;;;;14.65;12.00;;;;;;;;;;5059088;28;20113;-79
2022/08/20 00:30:37;;;;;;;15.77;12.10;;;;;;;;;;5056218;28;20410;-79
2022/08/20 00:33:15;;;;;;;14.50;11.48;;;;;;;;;;5075162;28;20040;-79
2022/08/20 00:35:42;;;;;;;18.05;12.73;;;;;;;;;;5072396;28;20612;-80
2022/08/20 00:38:08;;;;;;;15.63;12.23;;;;;;;;;;5054930;28;20047;-79
2022/08/20 00:40:37;;;;;;;16.17;12.07;;;;;;;;;;5073387;28;20440;-80
2022/08/20 00:43:04;;;;;;;15.93;11.85;;;;;;;;;;5072594;28;20040;-79
2022/08/20 00:45:31;;;;;;;18.08;11.85;;;;;;;;;;5056706;28;20486;-80
2022/08/20 00:47:57;;;;;;;15.55;12.15;;;;;;;;;;5055762;28;21218;-80
2022/08/20 00:50:26;;;;;;;16.52;12.15;;;;;;;;;;5072840;28;20529;-80
2022/08/20 00:52:53;;;;;;;16.10;10.82;;;;;;;;;;5057678;28;21043;-80
2022/08/20 00:55:20;;;;;;;15.23;12.75;;;;;;;;;;5057752;28;20084;-80
2022/08/20 00:57:50;;;;;;;18.38;12.57;;;;;;;;;;5061465;28;20051;-80
2022/08/20 01:00:27;;;;;;;15.68;11.60;;;;;;;;;;5078171;28;20050;-80
2022/08/20 01:02:54;;;;;;;16.80;12.07;;;;;;;;;;5062903;28;20123;-79
2022/08/20 01:05:22;;;;;;;17.52;13.18;;;;;;;;;;5083491;28;20065;-80
2022/08/20 01:07:52;;;;;;;19.63;12.35;;;;;;;;;;5081401;28;20044;-80
2022/08/20 01:10:21;;;;;;;17.37;12.37;;;;;;;;;;5079301;28;20052;-81
2022/08/20 01:12:48;;;;;;;16.90;11.77;;;;;;;;;;5077714;28;20330;-80
2022/08/20 01:15:16;;;;;;;17.20;12.15;;;;;;;;;;5065148;28;20097;-80
2022/08/20 01:17:48;;;;;;;15.77;12.52;;;;;;;;;;5077875;28;20143;-81
2022/08/20 01:20:23;;;;;;;17.98;13.20;;;;;;;;;;5066281;28;20044;-80
2022/08/20 01:25:38;;;;;;;17.73;12.88;;;;;;;;;;5077914;28;20048;-80
2022/08/20 01:28:04;;;;;;;17.00;12.70;;;;;;;;;;5082043;28;20047;-80
2022/08/20 01:30:31;;;;;;;17.50;11.73;;;;;;;;;;5062743;28;20044;-79
2022/08/20 01:32:57;;;;;;;14.18;11.85;;;;;;;;;;5062825;28;20097;-80
2022/08/20 01:35:24;;;;;;;17.48;12.15;;;;;;;;;;5079177;28;20036;-79
2022/08/20 01:37:50;;;;;;;16.75;11.93;;;;;;;;;;5085362;28;20040;-79
2022/08/20 01:40:23;;;;;;;19.73;12.27;;;;;;;;;;5065516;28;20139;-80
2022/08/20 01:42:49;;;;;;;19.33;11.85;;;;;;;;;;5085912;28;20487;-80
2022/08/20 01:45:15;;;;;;;14.68;11.35;;;;;;;;;;5083101;28;20469;-80
2022/08/20 01:47:41;;;;;;;18.88;11.43;;;;;;;;;;5080721;28;20036;-80
2022/08/20 01:50:12;;;;;;;15.93;11.52;;;;;;;;;;5090582;28;20045;-79
2022/08/20 01:52:57;;;;;;;16.23;11.05;;;;;;;;;;5084902;28;20044;-80
2022/08/20 01:55:23;;;;;;;14.95;10.90;;;;;;;;;;5066186;28;20057;-79
2022/08/20 01:57:49;;;;;;;15.27;11.10;;;;;;;;;;5083725;28;20047;-79
2022/08/20 02:00:17;;;;;;;16.95;10.63;;;;;;;;;;5089479;28;20036;-80
2022/08/20 02:02:43;;;;;;;18.38;10.25;;;;;;;;;;5083299;28;20951;-80
2022/08/20 02:05:10;;;;;;;14.88;10.63;;;;;;;;;;5085043;28;20044;-80
2022/08/20 02:07:36;;;;;;;17.13;10.38;;;;;;;;;;5078214;28;20058;-80
2022/08/20 02:10:04;;;;;;;15.77;9.90;;;;;;;;;;5067973;28;20060;-81
2022/08/20 02:12:30;;;;;;;20.08;10.45;;;;;;;;;;5065278;28;20048;-80
2022/08/20 02:14:56;;;;;;;23.42;10.55;;;;;;;;;;5086422;28;20138;-80
2022/08/20 02:17:24;;;;;;;19.15;10.40;;;;;;;;;;5084389;28;20141;-80
2022/08/20 02:19:50;;;;;;;14.50;9.25;;;;;;;;;;5066282;28;20048;-80
2022/08/20 02:22:20;;;;;;;17.98;10.23;;;;;;;;;;5085019;28;20036;-80
2022/08/20 02:24:46;;;;;;;15.00;10.05;;;;;;;;;;5084773;28;20047;-79
2022/08/20 02:27:12;;;;;;;17.30;10.90;;;;;;;;;;5084493;28;20067;-80
2022/08/20 02:29:38;;;;;;;18.90;10.63;;;;;;;;;;5085426;28;20052;-79
2022/08/20 02:32:05;;;;;;;16.60;10.05;;;;;;;;;;5088497;28;20044;-80
2022/08/20 02:34:33;;;;;;;16.85;10.63;;;;;;;;;;5088531;28;20054;-80
2022/08/20 02:36:59;;;;;;;17.65;10.00;;;;;;;;;;5086860;28;20074;-79
2022/08/20 02:39:25;;;;;;;16.52;10.20;;;;;;;;;;5077077;28;20104;-80
2022/08/20 02:41:51;;;;;;;17.58;10.65;;;;;;;;;;5078016;28;20052;-79
2022/08/20 02:44:19;;;;;;;17.58;10.52;;;;;;;;;;5085927;28;20478;-80
2022/08/20 02:46:48;;;;;;;18.73;11.05;;;;;;;;;;5083556;28;20077;-80
2022/08/20 02:49:16;;;;;;;17.38;10.27;;;;;;;;;;5086932;28;20498;-80
2022/08/20 02:51:42;;;;;;;13.05;9.70;;;;;;;;;;5066919;28;20048;-79
2022/08/20 02:54:07;;;;;;;12.63;9.88;;;;;;;;;;5089036;28;20045;-79
2022/08/20 02:56:34;;;;;;;16.25;8.98;;;;;;;;;;5084113;28;21301;-79
2022/08/20 02:59:00;;;;;;;15.40;9.60;;;;;;;;;;5085799;28;20443;-80
2022/08/20 03:01:26;;;;;;;17.52;10.52;;;;;;;;;;5085917;28;20049;-79
2022/08/20 03:03:55;;;;;;;18.38;10.02;;;;;;;;;;5049849;28;20064;-80
2022/08/20 03:06:22;;;;;;;15.70;10.02;;;;;;;;;;5074478;28;20041;-80
2022/08/20 03:08:48;;;;;;;15.65;9.32;;;;;;;;;;5086550;28;20774;-80
2022/08/20 03:11:15;;;;;;;14.32;9.60;;;;;;;;;;5063560;28;20639;-80
2022/08/20 03:13:41;;;;;;;16.02;10.00;;;;;;;;;;5083459;28;20090;-80
2022/08/20 03:16:07;;;;;;;17.25;9.80;;;;;;;;;;5064969;28;20055;-79
2022/08/20 03:18:36;;;;;;;15.23;9.20;;;;;;;;;;5084302;28;20041;-79
2022/08/20 03:21:02;;;;;;;16.08;9.65;;;;;;;;;;5063083;28;20041;-79
2022/08/20 03:23:28;;;;;;;15.65;9.27;;;;;;;;;;5080635;28;20041;-79
2022/08/20 03:25:55;;;;;;;16.02;9.55;;;;;;;;;;5082505;28;20398;-79
2022/08/20 03:28:21;;;;;;;20.27;9.48;;;;;;;;;;5063044;28;20052;-80
2022/08/20 03:30:47;;;;;;;17.80;9.70;;;;;;;;;;5081671;28;20041;-79
2022/08/20 03:33:15;;;;;;;18.40;10.30;;;;;;;;;;5085530;28;20040;-79
2022/08/20 03:35:41;;;;;;;17.75;9.98;;;;;;;;;;5085762;28;20118;-79
2022/08/20 03:38:11;;;;;;;18.25;9.77;;;;;;;;;;5070280;28;20051;-80
2022/08/20 03:40:37;;;;;;;17.73;9.55;;;;;;;;;;5066533;28;20048;-80
2022/08/20 03:43:04;;;;;;;17.20;9.45;;;;;;;;;;5082799;28;20049;-80
2022/08/20 03:45:31;;;;;;;13.32;8.35;;;;;;;;;;5084560;28;20044;-80
2022/08/20 03:47:57;;;;;;;19.42;9.02;;;;;;;;;;5067287;28;20040;-79
2022/08/20 03:50:24;;;;;;;15.15;8.95;;;;;;;;;;5084706;28;20048;-79
2022/08/20 03:52:51;;;;;;;15.35;8.77;;;;;;;;;;5085928;28;20063;-80
2022/08/20 03:55:18;;;;;;;16.92;8.40;;;;;;;;;;5050973;28;20049;-79
2022/08/20 03:57:48;;;;;;;14.98;7.93;;;;;;;;;;5078287;28;20468;-80
2022/08/20 04:00:18;;;;;;;17.60;7.70;;;;;;;;;;5064654;28;20048;-80
2022/08/20 04:02:44;;;;;;;15.55;7.50;;;;;;;;;;5081317;28;20048;-80
2022/08/20 04:05:13;;;;;;;18.92;8.15;;;;;;;;;;5084797;28;20097;-79
2022/08/20 04:07:39;;;;;;;17.90;7.78;;;;;;;;;;5084809;28;20048;-79
2022/08/20 04:10:08;;;;;;;13.77;7.97;;;;;;;;;;5077686;28;20056;-79
2022/08/20 04:12:39;;;;;;;17.95;8.18;;;;;;;;;;5087560;28;20096;-79
2022/08/20 04:15:05;;;;;;;15.88;7.13;;;;;;;;;;5087519;28;20087;-80
2022/08/20 04:17:32;;;;;;;18.85;8.00;;;;;;;;;;5069385;28;20059;-79
2022/08/20 04:19:58;;;;;;;15.73;7.72;;;;;;;;;;5083926;28;20059;-79
2022/08/20 04:22:24;;;;;;;14.93;7.55;;;;;;;;;;5088439;28;20052;-80
2022/08/20 04:24:50;;;;;;;17.15;7.55;;;;;;;;;;5083395;28;20056;-79
2022/08/20 04:27:16;;;;;;;16.10;7.80;;;;;;;;;;5085410;28;20052;-79
2022/08/20 04:29:43;;;;;;;17.85;7.45;;;;;;;;;;5078815;28;20044;-79
2022/08/20 04:32:09;;;;;;;15.60;7.57;;;;;;;;;;5065794;28;20048;-79
2022/08/20 04:34:35;;;;;;;16.67;7.22;;;;;;;;;;5085430;28;20048;-80
2022/08/20 04:37:02;;;;;;;17.65;8.18;;;;;;;;;;5079175;28;20394;-80
2022/08/20 04:39:28;;;;;;;17.52;7.18;;;;;;;;;;5075573;28;20488;-79
2022/08/20 04:41:57;;;;;;;11.85;7.35;;;;;;;;;;5060549;28;20045;-79
2022/08/20 04:44:23;;;;;;;15.77;8.05;;;;;;;;;;5058873;28;20055;-80
2022/08/20 04:46:49;;;;;;;22.33;8.07;;;;;;;;;;5076017;28;21091;-80
2022/08/20 04:49:15;;;;;;;15.27;7.30;;;;;;;;;;5075364;28;20498;-80
2022/08/20 04:51:41;;;;;;;16.98;7.80;;;;;;;;;;5075645;28;20115;-80
2022/08/20 04:54:07;;;;;;;14.38;6.90;;;;;;;;;;5079254;28;20548;-80
2022/08/20 04:56:38;;;;;;;13.75;7.30;;;;;;;;;;5062778;28;20098;-80
2022/08/20 04:59:05;;;;;;;17.95;7.25;;;;;;;;;;5064131;28;20060;-80
2022/08/20 05:01:32;;;;;;;13.25;6.57;;;;;;;;;;5060966;28;20060;-80
2022/08/20 05:03:58;;;;;;;17.02;7.55;;;;;;;;;;5080700;28;20052;-80
2022/08/20 05:06:27;;;;;;;19.13;7.53;;;;;;;;;;5083935;28;20409;-80
2022/08/20 05:08:54;;;;;;;15.32;7.45;;;;;;;;;;5089448;28;20048;-80
2022/08/20 05:11:24;;;;;;;14.73;7.13;;;;;;;;;;5087844;28;20049;-80
2022/08/20 05:13:51;;;;;;;16.55;7.10;;;;;;;;;;5087372;28;20111;-80
2022/08/20 05:16:21;;;;;;;14.50;6.95;;;;;;;;;;5070576;28;20049;-80
2022/08/20 05:18:47;;;;;;;17.23;6.78;;;;;;;;;;5085260;28;20429;-80
2022/08/20 05:21:13;;;;;;;11.55;6.43;;;;;;;;;;5067153;28;20112;-80
2022/08/20 05:23:42;;;;;;;9.27;6.50;;;;;;;;;;5063195;28;20062;-80
2022/08/20 05:26:11;;;;;;;14.13;6.38;;;;;;;;;;5054442;28;20465;-80
2022/08/20 05:28:39;;;;;;;14.02;6.20;;;;;;;;;;5086080;28;20032;-81
2022/08/20 05:31:08;;;;;;;11.38;5.90;;;;;;;;;;5084776;28;20048;-80
2022/08/20 05:33:34;;;;;;;12.02;5.90;;;;;;;;;;5083135;28;20453;-78
2022/08/20 05:36:01;;;;;;;14.45;6.10;;;;;;;;;;5086699;28;20045;-78
2022/08/20 05:38:28;;;;;;;14.23;5.72;;;;;;;;;;5088989;28;20037;-78
2022/08/20 05:40:54;;;;;;;14.10;6.35;;;;;;;;;;5090615;28;20043;-78
2022/08/20 05:43:20;;;;;;;12.65;6.22;;;;;;;;;;5089289;28;20048;-79
2022/08/20 05:45:51;;;;;;;15.90;6.45;;;;;;;;;;5087672;28;20044;-79
2022/08/20 05:48:19;;;;;;;12.82;5.90;;;;;;;;;;5086298;28;20049;-80
2022/08/20 05:50:47;;;;;;;12.65;5.88;;;;;;;;;;5080235;28;20047;-79
2022/08/20 05:53:14;;;;;;;11.15;5.95;;;;;;;;;;5083066;28;20055;-79
2022/08/20 05:55:40;;;;;;;13.10;6.07;;;;;;;;;;5063825;28;20052;-79
2022/08/20 05:58:08;;;;;;;12.55;5.72;;;;;;;;;;5081125;28;20037;-79
2022/08/20 06:00:36;;;;;;;11.75;6.07;;;;;;;;;;5083728;28;20119;-79
2022/08/20 06:05:49;;;;;;;18.88;5.93;;;;;;;;;;5082539;28;20586;-80
2022/08/20 06:08:16;;;;;;;11.82;5.40;;;;;;;;;;5065730;28;20068;-79
2022/08/20 06:10:43;;;;;;;12.85;5.22;;;;;;;;;;5075703;28;20098;-80
2022/08/20 06:13:09;;;;;;;12.32;5.30;;;;;;;;;;5076317;28;20049;-79
2022/08/20 06:15:35;;;;;;;14.70;5.43;;;;;;;;;;5077986;28;20163;-80
2022/08/20 06:18:06;;;;;;;11.82;5.18;;;;;;;;;;5064279;28;20123;-79
2022/08/20 06:20:32;;;;;;;;;;;;;;;;;;5066010;28;20037;-79
2022/08/20 06:22:58;;;;;;;13.63;4.85;;;;;;;;;;5075049;28;20062;-80
2022/08/20 06:25:24;;;;;;;11.55;4.90;;;;;;;;;;5078708;28;20154;-79
2022/08/20 06:27:50;;;;;;;10.93;4.70;;;;;;;;;;5079216;28;20040;-79
2022/08/20 06:30:16;;;;;;;12.20;4.22;;;;;;;;;;5079104;28;20448;-78
2022/08/20 06:32:43;;;;;;;9.05;3.95;;;;;;;;;;5082186;28;20044;-78
2022/08/20 06:35:09;;;;;;;12.75;4.78;;;;;;;;;;5065224;28;20104;-78
2022/08/20 06:37:36;;;;;;;10.68;4.15;;;;;;;;;;5084731;28;20041;-78
2022/08/20 06:40:08;;;;;;;10.73;3.63;;;;;;;;;;5066137;28;20076;-80
2022/08/20 06:42:34;;;;;;;13.02;3.47;;;;;;;;;;5068198;28;20106;-80
2022/08/20 06:45:03;;;;;;;11.95;3.40;;;;;;;;;;5087922;28;20483;-79
2022/08/20 06:47:30;;;;;;;10.65;3.30;;;;;;;;;;5066729;28;20104;-80
2022/08/20 06:49:56;;;;;;;11.43;3.15;;;;;;;;;;5084881;28;20051;-80
2022/08/20 06:52:22;;;;;;;12.23;3.13;;;;;;;;;;5090059;28;20066;-79
2022/08/20 06:54:48;;;;;;;10.52;2.72;;;;;;;;;;5082028;28;20049;-80
2022/08/20 06:57:16;;;;;;;7.28;2.30;;;;;;;;;;5084177;28;20088;-80
2022/08/20 06:59:42;;;;;;;9.02;2.40;;;;;;;;;;5071137;28;20047;-79
2022/08/20 07:02:08;;;;;;;9.48;2.28;;;;;;;;;;5089245;28;20555;-81
2022/08/20 07:04:36;;;;;;;11.15;3.03;;;;;;;;;;5088895;28;20123;-81
2022/08/20 07:07:02;;;;;;;10.68;2.45;;;;;;;;;;5053711;28;20062;-80
2022/08/20 07:09:28;;;;;;;8.32;2.08;;;;;;;;;;5087201;28;20083;-79
2022/08/20 07:11:55;;;;;;;11.70;2.67;;;;;;;;;;5047890;28;20050;-79
2022/08/20 07:14:21;;;;;;;9.45;2.17;;;;;;;;;;5081641;28;20048;-79
2022/08/20 07:16:48;;;;;;;10.40;2.35;;;;;;;;;;5062854;28;20050;-79
2022/08/20 07:19:14;;;;;;;12.77;2.42;;;;;;;;;;5039439;28;20090;-81
2022/08/20 07:21:40;;;;;;;8.48;2.25;;;;;;;;;;5065580;28;20045;-79
2022/08/20 07:24:08;;;;;;;11.63;2.63;;;;;;;;;;5032594;28;20051;-78
2022/08/20 07:26:34;;;;;;;12.52;2.38;;;;;;;;;;5053092;28;20052;-79
2022/08/20 07:29:00;;;;;;;8.10;2.20;;;;;;;;;;5060908;28;20391;-78
2022/08/20 07:34:12;;;;;;;10.95;2.50;;;;;;;;;;5072386;28;20051;-79
2022/08/20 07:36:39;;;;;;;12.85;2.08;;;;;;;;;;5077339;28;20081;-79
2022/08/20 07:39:05;;;;;;;8.00;2.00;;;;;;;;;;5078225;28;20040;-79
2022/08/20 07:41:31;;;;;;;9.18;2.10;;;;;;;;;;5059851;28;20048;-79
2022/08/20 07:43:57;;;;;;;11.68;2.10;;;;;;;;;;5076112;28;20044;-79
2022/08/20 07:46:23;;;;;;;9.77;1.83;;;;;;;;;;5078402;28;20048;-80
2022/08/20 07:48:50;;;;;;;8.80;1.90;;;;;;;;;;5075277;28;20044;-80
2022/08/20 07:51:18;;;;;;;9.25;2.00;;;;;;;;;;5074991;28;20145;-80
2022/08/20 07:53:45;;;;;;;9.02;1.70;;;;;;;;;;5075022;28;20044;-79
2022/08/20 07:56:12;;;;;;;8.85;2.03;;;;;;;;;;5074758;28;20047;-80
2022/08/20 07:58:40;;;;;;;8.90;1.80;;;;;;;;;;5072520;28;20056;-79
2022/08/20 08:01:07;;;;;;;8.27;1.80;;;;;;;;;;5056643;28;20049;-80
2022/08/20 08:03:33;;;;;;;8.95;2.00;;;;;;;;;;5056605;28;20250;-79
2022/08/20 08:05:59;;;;;;;9.38;1.80;;;;;;;;;;5074292;28;20479;-79
2022/08/20 08:08:27;;;;;;;7.47;1.80;;;;;;;;;;5074637;28;20145;-80
2022/08/20 08:10:56;;;;;;;10.73;1.90;;;;;;;;;;5074136;28;20045;-78
2022/08/20 08:13:25;;;;;;;6.10;1.55;;;;;;;;;;5076637;28;20424;-79
2022/08/20 08:15:52;;;;;;;9.80;1.70;;;;;;;;;;5076558;28;20048;-79
2022/08/20 08:18:20;;;;;;;8.18;1.83;;;;;;;;;;5077555;28;20402;-80
2022/08/20 08:20:48;;;;;;;6.72;1.40;;;;;;;;;;5076377;28;20041;-80
2022/08/20 08:23:14;;;;;;;11.10;2.33;;;;;;;;;;5077280;28;20466;-79
2022/08/20 08:25:41;;;;;;;10.80;1.80;;;;;;;;;;5075921;28;20051;-78
2022/08/20 08:28:10;;;;;;;9.70;1.80;;;;;;;;;;5076934;28;20055;-78
2022/08/20 08:30:39;;;;;;;9.00;1.90;;;;;;;;;;5062215;28;20490;-79
2022/08/20 08:35:49;;;;;;;11.38;1.83;;;;;;;;;;5079141;28;20045;-78
2022/08/20 08:38:15;;;;;;;9.23;1.70;;;;;;;;;;5073315;28;20048;-78
2022/08/20 08:40:42;;;;;;;8.75;1.90;;;;;;;;;;5058836;28;20044;-79
2022/08/20 08:43:10;;;;;;;9.68;1.67;;;;;;;;;;5079579;28;20079;-79
2022/08/20 08:45:44;;;;;;;8.00;1.95;;;;;;;;;;5078884;28;20040;-79
2022/08/20 08:48:12;;;;;;;11.57;1.60;;;;;;;;;;5072902;28;20068;-79
2022/08/20 08:50:38;;;;;;;11.23;2.42;;;;;;;;;;5073283;28;20119;-79
2022/08/20 08:53:05;;;;;;;7.97;1.65;;;;;;;;;;5061038;28;20059;-78
2022/08/20 08:55:31;;;;;;;8.52;1.63;;;;;;;;;;5059505;28;20141;-78
2022/08/20 08:57:59;;;;;;;9.30;1.40;;;;;;;;;;5059946;28;20048;-78
2022/08/20 09:00:27;;;;;;;9.40;2.03;;;;;;;;;;5045779;28;20052;-78
2022/08/20 09:02:53;;;;;;;10.23;1.65;;;;;;;;;;5080869;28;20150;-77
2022/08/20 09:05:23;;;;;;;9.27;1.52;;;;;;;;;;5077558;28;20060;-77
2022/08/20 09:07:50;;;;;;;9.07;1.45;;;;;;;;;;5060257;28;20552;-78
2022/08/20 09:10:17;;;;;;;10.98;1.58;;;;;;;;;;5061054;28;20080;-77
2022/08/20 09:12:44;;;;;;;11.43;1.70;;;;;;;;;;5074991;28;20098;-77
2022/08/20 09:15:11;;;;;;;8.18;1.80;;;;;;;;;;5075661;28;20089;-77
2022/08/20 09:17:37;;;;;;;10.05;1.70;;;;;;;;;;5074938;28;20040;-77
2022/08/20 09:20:03;;;;;;;7.43;1.50;;;;;;;;;;5074044;28;20460;-77
2022/08/20 09:22:32;;;;;;;8.77;1.73;;;;;;;;;;5076339;28;20494;-76
2022/08/20 09:24:59;;;;;;;9.18;1.50;;;;;;;;;;5075067;28;20092;-77
2022/08/20 09:27:25;;;;;;;6.90;1.38;;;;;;;;;;5077118;28;20044;-78
2022/08/20 09:29:54;;;;;;;7.55;1.50;;;;;;;;;;5076751;28;20056;-77
2022/08/20 09:32:20;;;;;;;9.68;1.30;;;;;;;;;;5052785;28;20086;-78
2022/08/20 09:34:50;;;;;;;9.82;1.73;;;;;;;;;;5077054;28;20036;-78
2022/08/20 09:37:16;;;;;;;7.18;1.30;;;;;;;;;;5057184;28;20049;-77
2022/08/20 09:39:42;;;;;;;5.10;1.13;;;;;;;;;;5076471;28;20036;-78
2022/08/20 09:42:09;;;;;;;7.40;1.48;;;;;;;;;;5057360;28;20048;-76
2022/08/20 09:44:35;;;;;;;7.50;1.55;;;;;;;;;;5059092;28;20114;-76
2022/08/20 09:47:01;;;;;;;5.60;1.25;;;;;;;;;;5076985;28;20132;-78
2022/08/20 09:49:27;;;;;;;8.20;1.20;;;;;;;;;;5076997;28;20510;-77
2022/08/20 09:51:53;;;;;;;7.80;1.73;;;;;;;;;;5076819;28;20131;-78
2022/08/20 09:54:20;;;;;;;7.65;1.38;;;;;;;;;;5075600;28;20083;-78
2022/08/20 09:56:46;;;;;;;8.75;1.30;;;;;;;;;;5058754;28;20154;-78
2022/08/20 09:59:15;;;;;;;7.60;1.33;;;;;;;;;;5075614;28;20146;-78
2022/08/20 10:01:41;;;;;;;7.85;1.17;;;;;;;;;;5073751;28;20048;-78
2022/08/20 10:04:07;;;;;;;7.90;1.23;;;;;;;;;;5041153;28;20075;-77
2022/08/20 10:06:38;;;;;;;5.88;1.35;;;;;;;;;;5054628;28;20084;-76
2022/08/20 10:09:04;;;;;;;10.63;1.50;;;;;;;;;;5070117;28;20756;-77
2022/08/20 10:11:30;;;;;;;9.75;1.33;;;;;;;;;;5051478;28;20393;-77
2022/08/20 10:13:56;;;;;;;6.03;1.15;;;;;;;;;;5070985;28;20070;-77
2022/08/20 10:16:22;;;;;;;7.93;1.55;;;;;;;;;;5071331;28;20486;-77
2022/08/20 10:18:48;;;;;;;8.32;1.10;;;;;;;;;;5071879;28;20599;-77
2022/08/20 10:21:17;;;;;;;6.53;1.40;;;;;;;;;;5075628;28;20065;-78
2022/08/20 10:23:44;;;;;;;6.63;1.50;;;;;;;;;;5079557;28;20045;-78
2022/08/20 10:26:11;;;;;;;7.28;1.52;;;;;;;;;;5077732;28;20067;-77
2022/08/20 10:28:37;;;;;;;9.82;1.58;;;;;;;;;;5057387;28;20049;-77
2022/08/20 10:31:06;;;;;;;7.03;1.25;;;;;;;;;;5075392;28;20037;-77
2022/08/20 10:33:32;;;;;;;6.78;1.25;;;;;;;;;;5075678;28;20059;-76
2022/08/20 10:36:05;;;;;;;6.35;1.20;;;;;;;;;;5077180;28;20037;-77
2022/08/20 10:38:31;;;;;;;7.97;1.40;;;;;;;;;;5073280;28;20048;-77
2022/08/20 10:40:57;;;;;;;6.72;1.35;;;;;;;;;;5077186;28;20037;-76
2022/08/20 10:43:23;;;;;;;7.65;1.30;;;;;;;;;;5043798;28;20052;-77
2022/08/20 10:45:50;;;;;;;8.52;1.48;;;;;;;;;;5073591;28;20045;-77
2022/08/20 10:48:16;;;;;;;6.88;1.23;;;;;;;;;;5074045;28;20067;-77
2022/08/20 10:50:42;;;;;;;6.75;1.20;;;;;;;;;;5074198;28;20040;-76
2022/08/20 10:53:08;;;;;;;6.60;1.23;;;;;;;;;;5075453;28;20040;-76
2022/08/20 10:55:34;;;;;;;7.80;1.40;;;;;;;;;;5071322;28;20055;-78
2022/08/20 10:58:00;;;;;;;8.35;1.23;;;;;;;;;;5055709;28;20064;-77
2022/08/20 11:00:29;;;;;;;7.88;1.35;;;;;;;;;;5070872;28;20532;-76
2022/08/20 11:02:55;;;;;;;7.63;1.40;;;;;;;;;;5053653;28;20470;-77
2022/08/20 11:05:21;;;;;;;8.90;1.38;;;;;;;;;;5070206;28;20043;-79
2022/08/20 11:07:47;;;;;;;5.45;1.10;;;;;;;;;;5054605;28;20055;-77
2022/08/20 11:10:13;;;;;;;7.53;1.25;;;;;;;;;;5056516;28;20056;-77
2022/08/20 11:12:39;;;;;;;6.10;1.50;;;;;;;;;;5073710;28;20119;-77
2022/08/20 11:15:05;;;;;;;9.10;1.63;;;;;;;;;;5075485;28;20422;-77
2022/08/20 11:17:33;;;;;;;7.00;1.20;;;;;;;;;;5057831;28;20120;-77
2022/08/20 11:19:59;;;;;;;6.95;1.45;;;;;;;;;;5073000;28;20071;-77
2022/08/20 11:22:25;;;;;;;5.15;1.10;;;;;;;;;;5056443;28;20049;-77
2022/08/20 11:24:54;;;;;;;6.63;1.17;;;;;;;;;;5067489;28;20063;-77
2022/08/20 11:27:26;;;;;;;8.02;1.58;;;;;;;;;;5060808;28;20053;-77
2022/08/20 11:29:52;;;;;;;7.50;1.33;;;;;;;;;;5072866;28;20127;-77
2022/08/20 11:32:18;;;;;;;7.53;1.55;;;;;;;;;;5072528;28;20045;-77
2022/08/20 11:34:44;;;;;;;6.40;1.45;;;;;;;;;;5057665;28;20126;-77
2022/08/20 11:37:11;;;;;;;8.98;1.50;;;;;;;;;;5071184;28;20046;-77
2022/08/20 11:39:37;;;;;;;6.65;1.38;;;;;;;;;;5055451;28;20047;-77
2022/08/20 11:42:04;;;;;;;7.75;1.42;;;;;;;;;;5070209;28;20040;-77
2022/08/20 11:44:30;;;;;;;7.45;1.30;;;;;;;;;;5067883;28;20449;-77
2022/08/20 11:47:01;;;;;;;5.55;1.25;;;;;;;;;;5035004;28;20070;-76
2022/08/20 11:49:28;;;;;;;7.38;1.50;;;;;;;;;;5067346;28;20098;-77
2022/08/20 11:51:54;;;;;;;10.40;1.92;;;;;;;;;;5068620;28;20051;-77
2022/08/20 11:54:20;;;;;;;8.00;1.40;;;;;;;;;;5071428;28;20044;-77
2022/08/20 11:56:46;;;;;;;6.68;1.17;;;;;;;;;;5073914;28;20490;-77
2022/08/20 11:59:13;;;;;;;8.23;1.60;;;;;;;;;;5071853;28;20055;-77
2022/08/20 12:01:39;;;;;;;7.15;1.40;;;;;;;;;;5074121;28;20048;-76
2022/08/20 12:04:05;;;;;;;6.70;1.30;;;;;;;;;;5070513;28;20051;-78
2022/08/20 12:06:32;;;;;;;6.35;1.30;;;;;;;;;;5035330;28;20089;-77
2022/08/20 12:09:01;;;;;;;4.93;1.20;;;;;;;;;;5073382;28;20048;-77
2022/08/20 12:11:27;;;;;;;8.95;1.67;;;;;;;;;;5048892;28;20680;-77
2022/08/20 12:13:55;;;;;;;7.18;1.58;;;;;;;;;;5037850;28;20486;-76
2022/08/20 12:16:21;;;;;;;6.93;1.25;;;;;;;;;;5050628;28;20045;-76
2022/08/20 12:18:48;;;;;;;6.32;1.45;;;;;;;;;;5049964;28;20052;-76
2022/08/20 12:21:14;;;;;;;8.32;1.90;;;;;;;;;;5053202;28;20115;-77
2022/08/20 12:23:40;;;;;;;8.40;1.73;;;;;;;;;;5054819;28;20036;-77
2022/08/20 12:26:06;;;;;;;6.28;1.35;;;;;;;;;;5054521;28;20045;-77
2022/08/20 12:28:32;;;;;;;7.20;1.48;;;;;;;;;;5053295;28;20049;-76
2022/08/20 12:30:59;;;;;;;7.00;1.30;;;;;;;;;;5049001;28;20044;-76
2022/08/20 12:33:25;;;;;;;7.38;1.65;;;;;;;;;;5051355;28;20055;-76
2022/08/20 12:35:51;;;;;;;7.57;1.55;;;;;;;;;;5051813;28;20098;-76
2022/08/20 12:38:18;;;;;;;9.10;1.55;;;;;;;;;;5053202;28;20068;-76
2022/08/20 12:40:44;;;;;;;8.30;1.52;;;;;;;;;;5047154;28;20045;-76
2022/08/20 12:43:10;;;;;;;8.63;1.52;;;;;;;;;;5051862;28;20033;-76
2022/08/20 12:45:36;;;;;;;7.43;1.65;;;;;;;;;;5054385;28;20541;-76
2022/08/20 12:48:06;;;;;;;7.80;1.83;;;;;;;;;;5051129;28;20155;-77
2022/08/20 12:50:32;;;;;;;6.63;1.70;;;;;;;;;;5047689;28;20053;-76
2022/08/20 12:52:59;;;;;;;6.43;1.67;;;;;;;;;;5051286;28;20117;-76
2022/08/20 12:55:25;;;;;;;7.65;1.70;;;;;;;;;;5055599;28;20048;-76
2022/08/20 12:57:55;;;;;;;8.18;1.70;;;;;;;;;;5055172;28;20064;-76
2022/08/20 13:00:23;;;;;;;5.55;1.42;;;;;;;;;;5051226;28;20068;-76
2022/08/20 13:02:50;;;;;;;6.45;1.77;;;;;;;;;;5050748;28;20487;-76
2022/08/20 13:05:16;;;;;;;6.70;1.50;;;;;;;;;;5053300;28;20090;-76
2022/08/20 13:07:43;;;;;;;6.90;1.55;;;;;;;;;;5050341;28;20072;-76
2022/08/20 13:10:10;;;;;;;7.20;1.60;;;;;;;;;;5055147;28;20045;-75
2022/08/20 13:12:36;;;;;;;8.00;2.05;;;;;;;;;;5057524;28;20556;-76
2022/08/20 13:15:03;;;;;;;8.32;1.75;;;;;;;;;;5075285;28;20048;-76
2022/08/20 13:17:29;;;;;;;5.60;1.50;;;;;;;;;;5076253;28;20478;-77
2022/08/20 13:19:55;;;;;;;6.20;1.67;;;;;;;;;;5077265;28;20045;-75
2022/08/20 13:22:21;;;;;;;9.85;1.63;;;;;;;;;;5075032;28;20044;-76
2022/08/20 13:24:47;;;;;;;5.88;1.67;;;;;;;;;;5074112;28;20067;-76
2022/08/20 13:27:15;;;;;;;6.55;1.50;;;;;;;;;;5068502;28;20040;-75
2022/08/20 13:29:51;;;;;;;5.50;1.40;;;;;;;;;;5077780;28;20488;-76
2022/08/20 13:32:18;;;;;;;7.05;1.60;;;;;;;;;;5057663;28;20414;-77
2022/08/20 13:34:45;;;;;;;7.07;1.67;;;;;;;;;;5077837;28;20051;-76
2022/08/20 13:37:15;;;;;;;8.20;1.70;;;;;;;;;;5076974;28;20065;-76
2022/08/20 13:39:42;;;;;;;8.32;1.65;;;;;;;;;;5059289;28;20080;-77
2022/08/20 13:42:08;;;;;;;6.18;1.50;;;;;;;;;;5077329;28;20508;-75
2022/08/20 13:44:35;;;;;;;8.07;1.38;;;;;;;;;;5076649;28;20044;-75
2022/08/20 13:47:12;;;;;;;7.10;1.40;;;;;;;;;;5077367;28;20048;-75
2022/08/20 13:49:38;;;;;;;7.07;1.83;;;;;;;;;;5076634;28;20044;-75
2022/08/20 13:52:04;;;;;;;5.65;1.40;;;;;;;;;;5076108;28;20052;-76
2022/08/20 13:54:30;;;;;;;8.75;1.95;;;;;;;;;;5075081;28;20052;-76
2022/08/20 13:57:04;;;;;;;6.07;1.80;;;;;;;;;;5073990;28;20049;-77
2022/08/20 13:59:30;;;;;;;7.95;1.92;;;;;;;;;;5066807;28;20071;-76
2022/08/20 14:01:56;;;;;;;6.82;1.42;;;;;;;;;;5076192;28;20063;-77
2022/08/20 14:04:22;;;;;;;5.15;1.45;;;;;;;;;;5072800;28;20036;-77
2022/08/20 14:06:48;;;;;;;7.38;1.85;;;;;;;;;;5074131;28;20502;-77
2022/08/20 14:09:14;;;;;;;6.85;1.70;;;;;;;;;;5079403;28;20514;-77
2022/08/20 14:11:40;;;;;;;7.63;2.00;;;;;;;;;;5095047;28;20056;-77
2022/08/20 14:14:06;;;;;;;6.95;1.60;;;;;;;;;;5092447;28;20417;-76
2022/08/20 14:16:32;;;;;;;6.45;1.52;;;;;;;;;;5064718;28;20053;-76
2022/08/20 14:18:58;;;;;;;5.72;1.35;;;;;;;;;;5073762;28;20519;-76
2022/08/20 14:21:24;;;;;;;8.05;1.70;;;;;;;;;;5073217;28;20052;-76
2022/08/20 14:23:50;;;;;;;8.93;1.75;;;;;;;;;;5059138;28;20045;-76
2022/08/20 14:26:16;;;;;;;6.72;1.50;;;;;;;;;;5072074;28;20044;-76
2022/08/20 14:28:42;;;;;;;10.18;1.40;;;;;;;;;;5071368;28;20080;-77
2022/08/20 14:31:08;;;;;;;6.03;1.50;;;;;;;;;;5054009;28;20041;-76
2022/08/20 14:33:35;;;;;;;7.75;1.70;;;;;;;;;;5058642;28;20052;-76
2022/08/20 14:36:01;;;;;;;8.27;2.00;;;;;;;;;;5075698;28;20343;-76
2022/08/20 14:38:27;;;;;;;6.57;1.35;;;;;;;;;;5075062;28;20379;-76
2022/08/20 14:40:53;;;;;;;8.93;1.88;;;;;;;;;;5065974;28;20075;-76
2022/08/20 14:43:21;;;;;;;6.05;1.33;;;;;;;;;;5068437;28;20048;-76